Time,TemperatureF,DewpointF,PressureIn,WindDirection,WindDirectionDegrees,WindSpeedMPH,WindSpeedGustMPH,Humidity,HourlyPrecipIn,Conditions,Clouds,dailyrainin,SoftwareType,DateUTC
2013-03-17 00:00:00,29.1,14.5,30.11,NW,315,0.0,4.0,54,0.00,,,0.00,WUHU21623XXSP,2013-03-17 05:00:00,
2013-03-17 00:05:00,29.1,14.5,30.11,NW,315,0.0,4.5,54,0.00,,,0.00,WUHU21623XXSP,2013-03-17 05:05:00,
2013-03-17 00:10:00,29.3,14.7,30.11,NW,315,0.0,5.6,54,0.00,,,0.00,WUHU21623XXSP,2013-03-17 05:10:00,
2013-03-17 00:15:00,29.1,14.5,30.12,WNW,292,1.1,5.6,54,0.00,,,0.00,WUHU21623XXSP,2013-03-17 05:15:00,
2013-03-17 00:20:00,29.1,14.9,30.12,WNW,292,7.4,7.4,55,0.00,,,0.00,WUHU21623XXSP,2013-03-17 05:20:00,
2013-03-17 00:25:00,29.1,14.5,30.12,NW,315,2.0,7.4,54,0.00,,,0.00,WUHU21623XXSP,2013-03-17 05:25:00,
2013-03-17 00:30:00,28.9,14.3,30.12,North,0,0.0,2.0,54,0.00,,,0.00,WUHU21623XXSP,2013-03-17 05:30:00,
2013-03-17 00:35:00,28.9,14.3,30.12,NW,315,0.0,5.4,54,0.00,,,0.00,WUHU21623XXSP,2013-03-17 05:35:00,
2013-03-17 00:40:00,28.8,14.2,30.12,NW,315,4.0,5.4,54,0.00,,,0.00,WUHU21623XXSP,2013-03-17 05:40:00,
2013-03-17 00:45:00,28.6,14.0,30.12,NW,315,0.2,4.0,54,0.00,,,0.00,WUHU21623XXSP,2013-03-17 05:45:00,
2013-03-17 00:50:00,28.6,14.0,30.12,North,0,1.1,2.0,54,0.00,,,0.00,WUHU21623XXSP,2013-03-17 05:50:00,
2013-03-17 00:55:00,28.6,14.0,30.12,North,0,0.2,2.2,54,0.00,,,0.00,WUHU21623XXSP,2013-03-17 05:55:00,
2013-03-17 01:00:00,28.4,13.9,30.12,North,0,4.5,4.5,54,0.00,,,0.00,WUHU21623XXSP,2013-03-17 06:00:00,
2013-03-17 01:05:00,28.4,13.9,30.12,North,0,4.5,4.5,54,0.00,,,0.00,WUHU21623XXSP,2013-03-17 06:05:00,
2013-03-17 01:10:00,27.9,12.9,30.12,North,0,1.8,4.5,53,0.00,,,0.00,WUHU21623XXSP,2013-03-17 06:10:00,
2013-03-17 01:15:00,27.9,12.9,30.12,North,0,0.0,4.0,53,0.00,,,0.00,WUHU21623XXSP,2013-03-17 06:15:00,
2013-03-17 01:20:00,27.5,12.5,30.12,North,0,0.0,4.0,53,0.00,,,0.00,WUHU21623XXSP,2013-03-17 06:20:00,
2013-03-17 01:25:00,27.5,12.5,30.12,North,0,1.3,1.3,53,0.00,,,0.00,WUHU21623XXSP,2013-03-17 06:25:00,
2013-03-17 01:30:00,27.3,12.4,30.12,North,0,1.6,1.6,53,0.00,,,0.00,WUHU21623XXSP,2013-03-17 06:30:00,
2013-03-17 01:35:00,27.3,12.4,30.12,North,0,1.8,6.3,53,0.00,,,0.00,WUHU21623XXSP,2013-03-17 06:35:00,
2013-03-17 01:40:00,27.0,12.0,30.12,North,0,0.9,6.3,53,0.00,,,0.00,WUHU21623XXSP,2013-03-17 06:40:00,
2013-03-17 01:45:00,27.0,12.0,30.12,North,0,3.1,4.5,53,0.00,,,0.00,WUHU21623XXSP,2013-03-17 06:45:00,
2013-03-17 01:50:00,26.8,11.4,30.13,North,0,3.4,4.5,52,0.00,,,0.00,WUHU21623XXSP,2013-03-17 06:50:00,
2013-03-17 01:55:00,26.8,11.8,30.12,North,0,1.3,3.4,53,0.00,,,0.00,WUHU21623XXSP,2013-03-17 06:55:00,
2013-03-17 02:00:00,26.4,11.5,30.12,NNW,337,4.0,4.0,53,0.00,,,0.00,WUHU21623XXSP,2013-03-17 07:00:00,
2013-03-17 02:05:00,26.4,11.5,30.12,North,0,2.0,4.0,53,0.00,,,0.00,WUHU21623XXSP,2013-03-17 07:05:00,
2013-03-17 02:10:00,26.4,11.5,30.12,North,0,0.7,4.0,53,0.00,,,0.00,WUHU21623XXSP,2013-03-17 07:10:00,
2013-03-17 02:15:00,26.2,11.3,30.12,North,0,0.0,0.7,53,0.00,,,0.00,WUHU21623XXSP,2013-03-17 07:15:00,
2013-03-17 02:20:00,26.1,11.3,30.12,North,0,2.9,2.9,53,0.00,,,0.00,WUHU21623XXSP,2013-03-17 07:20:00,
2013-03-17 02:25:00,26.1,11.2,30.12,North,0,0.0,2.9,53,0.00,,,0.00,WUHU21623XXSP,2013-03-17 07:25:00,
2013-03-17 02:30:00,26.1,11.2,30.12,North,0,0.0,2.0,53,0.00,,,0.00,WUHU21623XXSP,2013-03-17 07:30:00,
2013-03-17 02:35:00,25.9,11.0,30.12,North,0,2.0,2.0,53,0.00,,,0.00,WUHU21623XXSP,2013-03-17 07:35:00,
2013-03-17 02:40:00,25.7,10.8,30.12,NW,315,0.0,2.0,53,0.00,,,0.00,WUHU21623XXSP,2013-03-17 07:40:00,
2013-03-17 02:45:00,25.5,10.7,30.12,NE,45,0.4,2.0,53,0.00,,,0.00,WUHU21623XXSP,2013-03-17 07:45:00,
2013-03-17 02:50:00,25.5,10.7,30.12,NNW,337,0.0,5.4,53,0.00,,,0.00,WUHU21623XXSP,2013-03-17 07:50:00,
2013-03-17 02:55:00,25.5,10.7,30.12,NNW,337,3.4,5.4,53,0.00,,,0.00,WUHU21623XXSP,2013-03-17 07:55:00,
2013-03-17 03:00:00,25.3,10.5,30.12,North,0,0.9,3.4,53,0.00,,,0.00,WUHU21623XXSP,2013-03-17 08:00:00,
2013-03-17 03:05:00,25.2,10.3,30.12,North,0,3.1,3.4,53,0.00,,,0.00,WUHU21623XXSP,2013-03-17 08:05:00,
2013-03-17 03:10:00,25.2,10.8,30.11,NNW,337,0.4,3.1,54,0.00,,,0.00,WUHU21623XXSP,2013-03-17 08:10:00,
2013-03-17 03:15:00,25.2,10.8,30.11,North,0,2.2,3.1,54,0.00,,,0.00,WUHU21623XXSP,2013-03-17 08:15:00,
2013-03-17 03:20:00,25.0,10.6,30.11,NNW,337,0.0,2.7,54,0.00,,,0.00,WUHU21623XXSP,2013-03-17 08:20:00,
2013-03-17 03:25:00,25.0,10.6,30.11,North,0,5.4,5.6,54,0.00,,,0.00,WUHU21623XXSP,2013-03-17 08:25:00,
2013-03-17 03:30:00,25.0,11.0,30.11,NNW,337,3.6,5.6,55,0.00,,,0.00,WUHU21623XXSP,2013-03-17 08:30:00,
2013-03-17 03:35:00,25.0,11.0,30.11,North,0,5.8,5.8,55,0.00,,,0.00,WUHU21623XXSP,2013-03-17 08:35:00,
2013-03-17 03:40:00,25.0,11.0,30.10,NW,315,8.7,8.7,55,0.00,,,0.00,WUHU21623XXSP,2013-03-17 08:40:00,
2013-03-17 03:45:00,24.6,10.3,30.10,North,0,9.6,9.6,54,0.00,,,0.00,WUHU21623XXSP,2013-03-17 08:45:00,
2013-03-17 03:50:00,24.6,10.3,30.10,NNE,22,12.1,12.1,54,0.00,,,0.00,WUHU21623XXSP,2013-03-17 08:50:00,
2013-03-17 03:55:00,24.4,10.1,30.09,NNE,22,1.8,12.1,54,0.00,,,0.00,WUHU21623XXSP,2013-03-17 08:55:00,
2013-03-17 04:00:00,24.4,10.1,30.09,NNE,22,6.3,10.5,54,0.00,,,0.00,WUHU21623XXSP,2013-03-17 09:00:00,
2013-03-17 04:05:00,24.3,9.5,30.09,NNE,22,6.5,10.5,53,0.00,,,0.00,WUHU21623XXSP,2013-03-17 09:05:00,
2013-03-17 04:10:00,24.3,9.5,30.09,North,0,4.5,8.3,53,0.00,,,0.00,WUHU21623XXSP,2013-03-17 09:10:00,
2013-03-17 04:15:00,24.1,9.3,30.09,NE,45,2.5,11.4,53,0.00,,,0.00,WUHU21623XXSP,2013-03-17 09:15:00,
2013-03-17 04:20:00,24.1,9.3,30.10,NNW,337,8.7,11.4,53,0.00,,,0.00,WUHU21623XXSP,2013-03-17 09:20:00,
2013-03-17 04:25:00,23.9,9.2,30.10,NNE,22,3.1,8.7,53,0.00,,,0.00,WUHU21623XXSP,2013-03-17 09:25:00,
2013-03-17 04:30:00,23.9,9.2,30.10,North,0,3.6,6.5,53,0.00,,,0.00,WUHU21623XXSP,2013-03-17 09:30:00,
2013-03-17 04:35:00,23.7,9.0,30.10,NE,45,0.9,6.5,53,0.00,,,0.00,WUHU21623XXSP,2013-03-17 09:35:00,
2013-03-17 04:40:00,23.7,8.6,30.10,NNE,22,4.9,7.6,52,0.00,,,0.00,WUHU21623XXSP,2013-03-17 09:40:00,
2013-03-17 04:45:00,23.7,8.6,30.10,NNE,22,3.8,7.6,52,0.00,,,0.00,WUHU21623XXSP,2013-03-17 09:45:00,
2013-03-17 04:50:00,23.5,8.0,30.11,NNE,22,6.0,6.0,51,0.00,,,0.00,WUHU21623XXSP,2013-03-17 09:50:00,
2013-03-17 04:55:00,23.5,8.0,30.11,North,0,8.1,8.1,51,0.00,,,0.00,WUHU21623XXSP,2013-03-17 09:55:00,
2013-03-17 05:00:00,23.4,7.9,30.11,North,0,3.4,8.1,51,0.00,,,0.00,WUHU21623XXSP,2013-03-17 10:00:00,
2013-03-17 05:05:00,23.4,7.9,30.11,North,0,0.0,11.0,51,0.00,,,0.00,WUHU21623XXSP,2013-03-17 10:05:00,
2013-03-17 05:10:00,23.4,7.9,30.12,North,0,8.3,11.0,51,0.00,,,0.00,WUHU21623XXSP,2013-03-17 10:10:00,
2013-03-17 05:15:00,23.4,7.9,30.12,NE,45,4.0,8.3,51,0.00,,,0.00,WUHU21623XXSP,2013-03-17 10:15:00,
2013-03-17 05:20:00,23.2,7.3,30.12,North,0,4.9,7.8,50,0.00,,,0.00,WUHU21623XXSP,2013-03-17 10:20:00,
2013-03-17 05:25:00,23.2,6.8,30.12,NE,45,4.0,6.9,49,0.00,,,0.00,WUHU21623XXSP,2013-03-17 10:25:00,
2013-03-17 05:30:00,23.2,6.8,30.12,NNE,22,7.8,7.8,49,0.00,,,0.00,WUHU21623XXSP,2013-03-17 10:30:00,
2013-03-17 05:35:00,22.8,6.0,30.12,NE,45,4.0,7.8,48,0.00,,,0.00,WUHU21623XXSP,2013-03-17 10:35:00,
2013-03-17 05:40:00,23.0,6.2,30.13,NNE,22,6.3,6.3,48,0.00,,,0.00,WUHU21623XXSP,2013-03-17 10:40:00,
2013-03-17 05:45:00,22.8,6.0,30.13,NNE,22,3.1,6.3,48,0.00,,,0.00,WUHU21623XXSP,2013-03-17 10:45:00,
2013-03-17 05:50:00,22.6,5.8,30.14,ENE,67,2.2,7.2,48,0.00,,,0.00,WUHU21623XXSP,2013-03-17 10:50:00,
2013-03-17 05:55:00,22.6,5.8,30.14,NNE,22,1.3,7.2,48,0.00,,,0.00,WUHU21623XXSP,2013-03-17 10:55:00,
2013-03-17 06:00:00,22.6,5.8,30.14,NNE,22,0.9,4.3,48,0.00,,,0.00,WUHU21623XXSP,2013-03-17 11:00:00,
2013-03-17 06:05:00,22.5,5.6,30.15,North,0,1.3,4.3,48,0.00,,,0.00,WUHU21623XXSP,2013-03-17 11:05:00,
2013-03-17 06:10:00,22.5,5.6,30.15,NE,45,2.9,4.3,48,0.00,,,0.00,WUHU21623XXSP,2013-03-17 11:10:00,
2013-03-17 06:15:00,22.5,5.2,30.16,NNW,337,6.7,6.7,47,0.00,,,0.00,WUHU21623XXSP,2013-03-17 11:15:00,
2013-03-17 06:20:00,22.1,4.8,30.15,NNE,22,3.1,8.3,47,0.00,,,0.00,WUHU21623XXSP,2013-03-17 11:20:00,
2013-03-17 06:25:00,22.1,4.8,30.15,North,0,6.0,8.3,47,0.00,,,0.00,WUHU21623XXSP,2013-03-17 11:25:00,
2013-03-17 06:30:00,22.1,4.8,30.15,NNE,22,4.0,6.0,47,0.00,,,0.00,WUHU21623XXSP,2013-03-17 11:30:00,
2013-03-17 06:35:00,21.9,4.6,30.15,NE,45,2.9,6.0,47,0.00,,,0.00,WUHU21623XXSP,2013-03-17 11:35:00,
2013-03-17 06:40:00,21.7,4.5,30.16,NE,45,6.5,6.5,47,0.00,,,0.00,WUHU21623XXSP,2013-03-17 11:40:00,
2013-03-17 06:45:00,21.7,4.6,30.16,East,90,1.8,6.5,47,0.00,,,0.00,WUHU21623XXSP,2013-03-17 11:45:00,
2013-03-17 06:50:00,21.6,4.3,30.16,NNE,22,0.4,4.3,47,0.00,,,0.00,WUHU21623XXSP,2013-03-17 11:50:00,
2013-03-17 06:55:00,21.6,4.3,30.16,NE,45,0.2,4.5,47,0.00,,,0.00,WUHU21623XXSP,2013-03-17 11:55:00,
2013-03-17 07:00:00,21.6,4.3,30.16,NNE,22,1.3,4.5,47,0.00,,,0.00,WUHU21623XXSP,2013-03-17 12:00:00,
2013-03-17 07:05:00,21.4,4.1,30.16,East,90,0.0,3.6,47,0.00,,,0.00,WUHU21623XXSP,2013-03-17 12:05:00,
2013-03-17 07:10:00,21.4,4.1,30.16,NE,45,0.9,4.0,47,0.00,,,0.00,WUHU21623XXSP,2013-03-17 12:10:00,
2013-03-17 07:15:00,21.4,4.1,30.16,NE,45,4.3,4.3,47,0.00,,,0.00,WUHU21623XXSP,2013-03-17 12:15:00,
2013-03-17 07:20:00,21.4,4.1,30.15,North,0,5.8,5.8,47,0.00,,,0.00,WUHU21623XXSP,2013-03-17 12:20:00,
2013-03-17 07:25:00,21.2,4.0,30.15,NNE,22,6.0,7.8,47,0.00,,,0.00,WUHU21623XXSP,2013-03-17 12:25:00,
2013-03-17 07:30:00,21.2,4.0,30.15,NE,45,3.4,7.8,47,0.00,,,0.00,WUHU21623XXSP,2013-03-17 12:30:00,
2013-03-17 07:35:00,21.4,4.1,30.15,ESE,112,3.4,3.8,47,0.00,,,0.00,WUHU21623XXSP,2013-03-17 12:35:00,
2013-03-17 07:40:00,21.6,4.8,30.15,North,0,4.5,6.7,48,0.00,,,0.00,WUHU21623XXSP,2013-03-17 12:40:00,
2013-03-17 07:45:00,22.1,5.3,30.15,ENE,67,1.1,6.7,48,0.00,,,0.00,WUHU21623XXSP,2013-03-17 12:45:00,
2013-03-17 07:50:00,22.5,5.2,30.15,NE,45,0.0,6.3,47,0.00,,,0.00,WUHU21623XXSP,2013-03-17 12:50:00,
2013-03-17 07:55:00,22.1,4.5,30.16,ENE,67,2.5,6.3,46,0.00,,,0.00,WUHU21623XXSP,2013-03-17 12:55:00,
2013-03-17 08:00:00,22.1,4.4,30.16,ENE,67,6.7,6.7,46,0.00,,,0.00,WUHU21623XXSP,2013-03-17 13:00:00,
2013-03-17 08:05:00,21.9,4.2,30.16,NNE,22,2.5,6.7,46,0.00,,,0.00,WUHU21623XXSP,2013-03-17 13:05:00,
2013-03-17 08:10:00,22.1,4.4,30.16,ENE,67,2.2,3.4,46,0.00,,,0.00,WUHU21623XXSP,2013-03-17 13:10:00,
2013-03-17 08:15:00,22.3,4.5,30.16,NE,45,1.8,3.4,46,0.00,,,0.00,WUHU21623XXSP,2013-03-17 13:15:00,
2013-03-17 08:20:00,22.6,4.9,30.17,NE,45,6.7,6.7,46,0.00,,,0.00,WUHU21623XXSP,2013-03-17 13:20:00,
2013-03-17 08:25:00,23.2,5.4,30.16,NE,45,4.9,6.7,46,0.00,,,0.00,WUHU21623XXSP,2013-03-17 13:25:00,
2013-03-17 08:30:00,23.2,4.9,30.16,NNE,22,0.0,4.9,45,0.00,,,0.00,WUHU21623XXSP,2013-03-17 13:30:00,
2013-03-17 08:35:00,23.4,5.1,30.16,ESE,112,1.6,6.7,45,0.00,,,0.00,WUHU21623XXSP,2013-03-17 13:35:00,
2013-03-17 08:40:00,23.4,5.1,30.17,ENE,67,1.1,6.7,45,0.00,,,0.00,WUHU21623XXSP,2013-03-17 13:40:00,
2013-03-17 08:45:00,23.2,4.9,30.17,SE,135,0.7,4.3,45,0.00,,,0.00,WUHU21623XXSP,2013-03-17 13:45:00,
2013-03-17 08:50:00,23.4,5.1,30.17,NE,45,1.3,2.9,45,0.00,,,0.00,WUHU21623XXSP,2013-03-17 13:50:00,
2013-03-17 08:55:00,23.5,5.2,30.17,ENE,67,3.6,3.6,45,0.00,,,0.00,WUHU21623XXSP,2013-03-17 13:55:00,
2013-03-17 09:00:00,24.3,6.3,30.18,North,0,4.3,5.1,46,0.00,,,0.00,WUHU21623XXSP,2013-03-17 14:00:00,
2013-03-17 09:05:00,25.0,7.0,30.18,NE,45,1.3,5.1,46,0.00,,,0.00,WUHU21623XXSP,2013-03-17 14:05:00,
2013-03-17 09:10:00,25.3,6.8,30.19,ENE,67,0.9,4.3,45,0.00,,,0.00,WUHU21623XXSP,2013-03-17 14:10:00,
2013-03-17 09:15:00,25.9,7.3,30.18,NE,45,0.0,4.3,45,0.00,,,0.00,WUHU21623XXSP,2013-03-17 14:15:00,
2013-03-17 09:20:00,26.2,7.6,30.18,East,90,5.6,5.6,45,0.00,,,0.00,WUHU21623XXSP,2013-03-17 14:20:00,
2013-03-17 09:25:00,26.8,7.6,30.18,NE,45,0.9,6.7,44,0.00,,,0.00,WUHU21623XXSP,2013-03-17 14:25:00,
2013-03-17 09:30:00,27.1,7.5,30.18,ENE,67,4.3,6.7,43,0.00,,,0.00,WUHU21623XXSP,2013-03-17 14:30:00,
2013-03-17 09:35:00,27.5,7.8,30.18,NNE,22,4.0,4.3,43,0.00,,,0.00,WUHU21623XXSP,2013-03-17 14:35:00,
2013-03-17 09:40:00,27.9,7.7,30.18,SE,135,7.4,7.4,42,0.00,,,0.00,WUHU21623XXSP,2013-03-17 14:40:00,
2013-03-17 09:45:00,28.6,7.8,30.18,ENE,67,3.1,7.4,41,0.00,,,0.00,WUHU21623XXSP,2013-03-17 14:45:00,
2013-03-17 09:50:00,29.1,8.8,30.18,ENE,67,6.7,8.9,42,0.00,,,0.00,WUHU21623XXSP,2013-03-17 14:50:00,
2013-03-17 09:55:00,29.7,8.8,30.18,ENE,67,4.9,8.9,41,0.00,,,0.00,WUHU21623XXSP,2013-03-17 14:55:00,
2013-03-17 10:00:00,30.0,8.6,30.19,East,90,3.1,5.4,40,0.00,,,0.00,WUHU21623XXSP,2013-03-17 15:00:00,
2013-03-17 10:05:00,30.4,8.9,30.18,NE,45,4.0,5.4,40,0.00,,,0.00,WUHU21623XXSP,2013-03-17 15:05:00,
2013-03-17 10:10:00,30.6,9.1,30.18,ESE,112,2.7,4.0,40,0.00,,,0.00,WUHU21623XXSP,2013-03-17 15:10:00,
2013-03-17 10:15:00,31.5,9.9,30.18,ESE,112,1.3,8.5,40,0.00,,,0.00,WUHU21623XXSP,2013-03-17 15:15:00,
2013-03-17 10:20:00,31.5,9.3,30.18,ENE,67,5.8,8.5,39,0.00,,,0.00,WUHU21623XXSP,2013-03-17 15:20:00,
2013-03-17 10:25:00,31.1,8.3,30.18,ENE,67,0.9,5.8,38,0.00,,,0.00,WUHU21623XXSP,2013-03-17 15:25:00,
2013-03-17 10:30:00,30.7,7.4,30.17,East,90,5.4,5.4,37,0.00,,,0.00,WUHU21623XXSP,2013-03-17 15:30:00,
2013-03-17 10:35:00,30.9,8.2,30.18,ENE,67,6.0,6.0,38,0.00,,,0.00,WUHU21623XXSP,2013-03-17 15:35:00,
2013-03-17 10:40:00,31.3,9.1,30.17,East,90,1.6,6.0,39,0.00,,,0.00,WUHU21623XXSP,2013-03-17 15:40:00,
2013-03-17 10:45:00,32.2,10.6,30.17,East,90,0.4,6.5,40,0.00,,,0.00,WUHU21623XXSP,2013-03-17 15:45:00,
2013-03-17 10:50:00,32.4,10.1,30.17,ESE,112,1.8,8.7,39,0.00,,,0.00,WUHU21623XXSP,2013-03-17 15:50:00,
2013-03-17 10:55:00,32.5,10.9,30.17,ESE,112,6.7,8.7,40,0.00,,,0.00,WUHU21623XXSP,2013-03-17 15:55:00,
2013-03-17 11:00:00,32.7,11.0,30.17,NE,45,6.5,6.7,40,0.00,,,0.00,WUHU21623XXSP,2013-03-17 16:00:00,
2013-03-17 11:05:00,32.9,11.2,30.17,East,90,1.8,6.5,40,0.00,,,0.00,WUHU21623XXSP,2013-03-17 16:05:00,
2013-03-17 11:10:00,32.7,9.8,30.16,East,90,5.4,6.3,38,0.00,,,0.00,WUHU21623XXSP,2013-03-17 16:10:00,
2013-03-17 11:15:00,32.4,9.5,30.17,SE,135,5.1,6.3,38,0.00,,,0.00,WUHU21623XXSP,2013-03-17 16:15:00,
2013-03-17 11:20:00,32.4,10.1,30.17,ESE,112,6.5,6.5,39,0.00,,,0.00,WUHU21623XXSP,2013-03-17 16:20:00,
2013-03-17 11:25:00,33.1,11.9,30.16,ESE,112,1.1,6.5,41,0.00,,,0.00,WUHU21623XXSP,2013-03-17 16:25:00,
2013-03-17 11:30:00,33.4,12.2,30.16,NE,45,1.8,4.0,41,0.00,,,0.00,WUHU21623XXSP,2013-03-17 16:30:00,
2013-03-17 11:35:00,33.8,12.5,30.16,ENE,67,0.0,4.5,41,0.00,,,0.00,WUHU21623XXSP,2013-03-17 16:35:00,
2013-03-17 11:40:00,34.7,13.9,30.16,SSE,157,3.8,4.7,42,0.00,,,0.00,WUHU21623XXSP,2013-03-17 16:40:00,
2013-03-17 11:45:00,35.1,13.2,30.16,ESE,112,3.6,6.9,40,0.00,,,0.00,WUHU21623XXSP,2013-03-17 16:45:00,
2013-03-17 11:50:00,34.9,13.0,30.16,East,90,5.8,6.9,40,0.00,,,0.00,WUHU21623XXSP,2013-03-17 16:50:00,
2013-03-17 11:55:00,35.1,12.5,30.16,ESE,112,3.4,5.8,39,0.00,,,0.00,WUHU21623XXSP,2013-03-17 16:55:00,
2013-03-17 12:00:00,35.1,12.5,30.16,SE,135,4.3,6.3,39,0.00,,,0.00,WUHU21623XXSP,2013-03-17 17:00:00,
2013-03-17 12:05:00,35.2,13.3,30.16,SE,135,1.1,6.3,40,0.00,,,0.00,WUHU21623XXSP,2013-03-17 17:05:00,
2013-03-17 12:10:00,35.2,12.7,30.16,SE,135,4.0,12.1,39,0.00,,,0.00,WUHU21623XXSP,2013-03-17 17:10:00,
2013-03-17 12:15:00,35.1,12.7,30.15,SE,135,4.7,12.1,39,0.00,,,0.00,WUHU21623XXSP,2013-03-17 17:15:00,
2013-03-17 12:20:00,35.1,12.5,30.15,ENE,67,3.8,4.7,39,0.00,,,0.00,WUHU21623XXSP,2013-03-17 17:20:00,
2013-03-17 12:25:00,34.7,12.8,30.15,SE,135,3.4,5.6,40,0.00,,,0.00,WUHU21623XXSP,2013-03-17 17:25:00,
2013-03-17 12:30:00,34.9,13.0,30.14,ENE,67,10.5,10.5,40,0.00,,,0.00,WUHU21623XXSP,2013-03-17 17:30:00,
2013-03-17 12:35:00,35.1,13.2,30.14,East,90,4.0,10.5,40,0.00,,,0.00,WUHU21623XXSP,2013-03-17 17:35:00,
2013-03-17 12:40:00,35.2,13.3,30.14,ESE,112,2.9,13.4,40,0.00,,,0.00,WUHU21623XXSP,2013-03-17 17:40:00,
2013-03-17 12:45:00,35.8,14.3,30.14,SE,135,6.3,13.4,41,0.00,,,0.00,WUHU21623XXSP,2013-03-17 17:45:00,
2013-03-17 12:50:00,36.0,14.0,30.13,ESE,112,4.5,6.3,40,0.00,,,0.00,WUHU21623XXSP,2013-03-17 17:50:00,
2013-03-17 12:55:00,36.0,14.0,30.13,NE,45,1.8,7.4,40,0.00,,,0.00,WUHU21623XXSP,2013-03-17 17:55:00,
2013-03-17 13:00:00,35.8,13.8,30.13,ESE,112,5.8,7.4,40,0.00,,,0.00,WUHU21623XXSP,2013-03-17 18:00:00,
2013-03-17 13:05:00,35.2,13.3,30.12,SE,135,4.9,5.8,40,0.00,,,0.00,WUHU21623XXSP,2013-03-17 18:05:00,
2013-03-17 13:10:00,35.1,13.2,30.12,ENE,67,3.1,5.4,40,0.00,,,0.00,WUHU21623XXSP,2013-03-17 18:10:00,
2013-03-17 13:15:00,34.5,12.7,30.11,East,90,6.3,6.3,40,0.00,,,0.00,WUHU21623XXSP,2013-03-17 18:15:00,
2013-03-17 13:20:00,34.3,13.0,30.11,ESE,112,5.8,6.3,41,0.00,,,0.00,WUHU21623XXSP,2013-03-17 18:20:00,
2013-03-17 13:25:00,34.0,13.2,30.11,SE,135,3.6,6.5,42,0.00,,,0.00,WUHU21623XXSP,2013-03-17 18:25:00,
2013-03-17 13:30:00,33.8,13.5,30.11,SE,135,5.6,6.5,43,0.00,,,0.00,WUHU21623XXSP,2013-03-17 18:30:00,
2013-03-17 13:35:00,34.0,13.5,30.11,ESE,112,11.9,11.9,43,0.00,,,0.00,WUHU21623XXSP,2013-03-17 18:35:00,
2013-03-17 13:40:00,33.6,13.4,30.11,SE,135,6.0,11.9,43,0.00,,,0.00,WUHU21623XXSP,2013-03-17 18:40:00,
2013-03-17 13:45:00,33.4,13.2,30.10,SE,135,4.5,10.5,43,0.00,,,0.00,WUHU21623XXSP,2013-03-17 18:45:00,
2013-03-17 13:50:00,33.3,13.6,30.10,ESE,112,4.3,4.9,44,0.00,,,0.00,WUHU21623XXSP,2013-03-17 18:50:00,
2013-03-17 13:55:00,33.3,14.1,30.10,SE,135,0.0,8.9,45,0.00,,,0.00,WUHU21623XXSP,2013-03-17 18:55:00,
2013-03-17 14:00:00,33.3,13.6,30.10,ESE,112,4.7,9.4,44,0.00,,,0.00,WUHU21623XXSP,2013-03-17 19:00:00,
2013-03-17 14:05:00,33.1,13.4,30.09,ESE,112,3.8,9.4,44,0.00,,,0.00,WUHU21623XXSP,2013-03-17 19:05:00,
2013-03-17 14:10:00,33.3,14.1,30.09,SE,135,6.9,6.9,45,0.00,,,0.00,WUHU21623XXSP,2013-03-17 19:10:00,
2013-03-17 14:15:00,33.3,14.6,30.09,ESE,112,3.6,6.9,46,0.00,,,0.00,WUHU21623XXSP,2013-03-17 19:15:00,
2013-03-17 14:20:00,33.1,13.9,30.09,ESE,112,4.0,12.5,45,0.00,,,0.00,WUHU21623XXSP,2013-03-17 19:20:00,
2013-03-17 14:25:00,33.1,13.9,30.09,East,90,4.0,12.5,45,0.00,,,0.00,WUHU21623XXSP,2013-03-17 19:25:00,
2013-03-17 14:30:00,33.3,14.6,30.09,ESE,112,0.0,4.0,46,0.00,,,0.00,WUHU21623XXSP,2013-03-17 19:30:00,
2013-03-17 14:35:00,32.9,14.2,30.09,East,90,5.6,15.9,46,0.00,,,0.00,WUHU21623XXSP,2013-03-17 19:35:00,
2013-03-17 14:40:00,32.9,14.2,30.09,East,90,7.4,15.9,46,0.00,,,0.00,WUHU21623XXSP,2013-03-17 19:40:00,
2013-03-17 14:45:00,32.7,14.1,30.09,ESE,112,0.7,7.4,46,0.00,,,0.00,WUHU21623XXSP,2013-03-17 19:45:00,
2013-03-17 14:50:00,32.7,14.1,30.09,ESE,112,10.3,10.3,46,0.00,,,0.00,WUHU21623XXSP,2013-03-17 19:50:00,
2013-03-17 14:55:00,32.9,14.7,30.09,ESE,112,0.7,10.3,47,0.00,,,0.00,WUHU21623XXSP,2013-03-17 19:55:00,
2013-03-17 15:00:00,32.9,14.7,30.08,SE,135,0.0,3.6,47,0.00,,,0.00,WUHU21623XXSP,2013-03-17 20:00:00,
2013-03-17 15:05:00,32.9,14.7,30.08,ESE,112,2.2,4.9,47,0.00,,,0.00,WUHU21623XXSP,2013-03-17 20:05:00,
2013-03-17 15:10:00,32.9,14.7,30.08,East,90,0.0,4.9,47,0.00,,,0.00,WUHU21623XXSP,2013-03-17 20:10:00,
2013-03-17 15:15:00,32.9,15.2,30.07,ESE,112,2.0,6.9,48,0.00,,,0.00,WUHU21623XXSP,2013-03-17 20:15:00,
2013-03-17 15:20:00,32.9,15.2,30.07,ESE,112,0.9,6.9,48,0.00,,,0.00,WUHU21623XXSP,2013-03-17 20:20:00,
2013-03-17 15:25:00,32.9,15.2,30.07,East,90,5.1,5.1,48,0.00,,,0.00,WUHU21623XXSP,2013-03-17 20:25:00,
2013-03-17 15:30:00,33.1,15.4,30.07,SE,135,0.0,5.1,48,0.00,,,0.00,WUHU21623XXSP,2013-03-17 20:30:00,
2013-03-17 15:35:00,33.3,15.6,30.07,ESE,112,2.2,8.7,48,0.00,,,0.00,WUHU21623XXSP,2013-03-17 20:35:00,
2013-03-17 15:40:00,33.4,15.7,30.06,ESE,112,6.0,8.7,48,0.00,,,0.00,WUHU21623XXSP,2013-03-17 20:40:00,
2013-03-17 15:45:00,33.4,15.7,30.06,ESE,112,6.9,6.9,48,0.00,,,0.00,WUHU21623XXSP,2013-03-17 20:45:00,
2013-03-17 15:50:00,33.4,15.2,30.06,ESE,112,1.6,6.9,47,0.00,,,0.00,WUHU21623XXSP,2013-03-17 20:50:00,
2013-03-17 15:55:00,33.4,15.2,30.06,East,90,4.9,6.9,47,0.00,,,0.00,WUHU21623XXSP,2013-03-17 20:55:00,
2013-03-17 16:00:00,33.4,15.2,30.05,ESE,112,8.1,10.1,47,0.00,,,0.00,WUHU21623XXSP,2013-03-17 21:00:00,
2013-03-17 16:05:00,33.4,14.7,30.05,ESE,112,1.6,10.1,46,0.00,,,0.00,WUHU21623XXSP,2013-03-17 21:05:00,
2013-03-17 16:10:00,33.4,15.2,30.04,East,90,1.1,6.7,47,0.00,,,0.00,WUHU21623XXSP,2013-03-17 21:10:00,
2013-03-17 16:15:00,33.4,15.7,30.04,East,90,3.1,3.4,48,0.00,,,0.00,WUHU21623XXSP,2013-03-17 21:15:00,
2013-03-17 16:20:00,33.8,15.5,30.04,ESE,112,5.6,5.6,47,0.00,,,0.00,WUHU21623XXSP,2013-03-17 21:20:00,
2013-03-17 16:25:00,33.8,15.5,30.04,SE,135,6.3,6.9,47,0.00,,,0.00,WUHU21623XXSP,2013-03-17 21:25:00,
2013-03-17 16:30:00,33.8,15.5,30.04,ESE,112,4.3,6.9,47,0.00,,,0.00,WUHU21623XXSP,2013-03-17 21:30:00,
2013-03-17 16:35:00,34.0,15.7,30.04,ESE,112,6.0,6.5,47,0.00,,,0.00,WUHU21623XXSP,2013-03-17 21:35:00,
2013-03-17 16:40:00,34.0,15.0,30.04,SE,135,0.0,6.5,47,0.00,,,0.00,WUHU21623XXSP,2013-03-17 21:40:00,
2013-03-17 16:45:00,34.0,15.7,30.04,ESE,112,0.7,4.0,47,0.00,,,0.00,WUHU21623XXSP,2013-03-17 21:45:00,
2013-03-17 16:50:00,33.8,15.5,30.04,ESE,112,2.7,5.6,47,0.00,,,0.00,WUHU21623XXSP,2013-03-17 21:50:00,
2013-03-17 16:55:00,33.8,16.1,30.04,East,90,5.6,5.6,48,0.00,,,0.00,WUHU21623XXSP,2013-03-17 21:55:00,
2013-03-17 17:00:00,33.6,15.9,30.04,ESE,112,1.8,5.6,48,0.00,,,0.00,WUHU21623XXSP,2013-03-17 22:00:00,
2013-03-17 17:05:00,33.4,15.7,30.04,ENE,67,4.5,5.4,48,0.00,,,0.00,WUHU21623XXSP,2013-03-17 22:05:00,
2013-03-17 17:10:00,33.4,15.7,30.04,ESE,112,3.4,4.5,48,0.00,,,0.00,WUHU21623XXSP,2013-03-17 22:10:00,
2013-03-17 17:15:00,33.3,15.6,30.04,East,90,2.7,6.0,48,0.00,,,0.00,WUHU21623XXSP,2013-03-17 22:15:00,
2013-03-17 17:20:00,33.3,15.6,30.03,ESE,112,8.5,8.5,48,0.00,,,0.00,WUHU21623XXSP,2013-03-17 22:20:00,
2013-03-17 17:25:00,32.9,15.2,30.03,ESE,112,3.1,8.5,48,0.00,,,0.00,WUHU21623XXSP,2013-03-17 22:25:00,
2013-03-17 17:30:00,32.9,15.7,30.03,ESE,112,5.8,5.8,49,0.00,,,0.00,WUHU21623XXSP,2013-03-17 22:30:00,
2013-03-17 17:35:00,32.9,15.7,30.04,ESE,112,4.7,5.8,49,0.00,,,0.00,WUHU21623XXSP,2013-03-17 22:35:00,
2013-03-17 17:40:00,32.9,15.7,30.03,ENE,67,6.3,6.3,49,0.00,,,0.00,WUHU21623XXSP,2013-03-17 22:40:00,
2013-03-17 17:45:00,32.9,16.1,30.03,ESE,112,7.4,7.6,50,0.00,,,0.00,WUHU21623XXSP,2013-03-17 22:45:00,
2013-03-17 17:50:00,32.9,16.3,30.03,ESE,112,3.4,7.6,50,0.00,,,0.00,WUHU21623XXSP,2013-03-17 22:50:00,
2013-03-17 17:55:00,32.9,16.3,30.03,ESE,112,5.1,5.1,50,0.00,,,0.00,WUHU21623XXSP,2013-03-17 22:55:00,
2013-03-17 18:00:00,32.9,16.3,30.02,East,90,6.3,6.9,50,0.00,,,0.00,WUHU21623XXSP,2013-03-17 23:00:00,
2013-03-17 18:05:00,32.9,16.3,30.02,SE,135,2.9,6.9,50,0.00,,,0.00,WUHU21623XXSP,2013-03-17 23:05:00,
2013-03-17 18:10:00,32.7,16.1,30.02,ENE,67,1.1,6.5,50,0.00,,,0.00,WUHU21623XXSP,2013-03-17 23:10:00,
2013-03-17 18:15:00,32.7,16.1,30.01,ESE,112,2.5,6.5,50,0.00,,,0.00,WUHU21623XXSP,2013-03-17 23:15:00,
2013-03-17 18:20:00,32.7,16.1,30.01,SE,135,1.8,3.8,50,0.00,,,0.00,WUHU21623XXSP,2013-03-17 23:20:00,
2013-03-17 18:25:00,32.7,16.1,30.01,East,90,0.0,2.0,50,0.00,,,0.00,WUHU21623XXSP,2013-03-17 23:25:00,
2013-03-17 18:30:00,32.4,15.8,30.01,East,90,1.8,4.3,50,0.00,,,0.00,WUHU21623XXSP,2013-03-17 23:30:00,
2013-03-17 18:35:00,32.4,16.2,30.01,ENE,67,6.0,6.9,51,0.00,,,0.00,WUHU21623XXSP,2013-03-17 23:35:00,
2013-03-17 18:40:00,32.2,16.0,30.01,ESE,112,4.5,6.9,51,0.00,,,0.00,WUHU21623XXSP,2013-03-17 23:40:00,
2013-03-17 18:45:00,32.0,15.9,30.01,SE,135,1.3,4.5,51,0.00,,,0.00,WUHU21623XXSP,2013-03-17 23:45:00,
2013-03-17 18:50:00,31.8,15.7,30.01,East,90,0.9,1.8,51,0.00,,,0.00,WUHU21623XXSP,2013-03-17 23:50:00,
2013-03-17 18:55:00,31.6,15.5,30.00,SE,135,5.6,5.6,51,0.00,,,0.00,WUHU21623XXSP,2013-03-17 23:55:00,
2013-03-17 19:00:00,31.5,15.8,30.01,East,90,1.8,6.7,52,0.00,,,0.00,WUHU21623XXSP,2013-03-18 00:00:00,
2013-03-17 19:05:00,31.3,15.6,30.01,East,90,1.6,6.7,52,0.00,,,0.00,WUHU21623XXSP,2013-03-18 00:05:00,
2013-03-17 19:10:00,30.9,15.3,30.01,East,90,5.6,5.6,52,0.00,,,0.00,WUHU21623XXSP,2013-03-18 00:10:00,
2013-03-17 19:15:00,30.7,15.3,30.01,ENE,67,4.7,5.6,52,0.00,,,0.00,WUHU21623XXSP,2013-03-18 00:15:00,
2013-03-17 19:20:00,30.7,15.1,30.01,ESE,112,0.9,4.7,52,0.00,,,0.00,WUHU21623XXSP,2013-03-18 00:20:00,
2013-03-17 19:25:00,30.6,15.4,30.00,ENE,67,5.6,7.4,53,0.00,,,0.00,WUHU21623XXSP,2013-03-18 00:25:00,
2013-03-17 19:30:00,30.6,15.4,30.01,East,90,6.3,7.4,53,0.00,,,0.00,WUHU21623XXSP,2013-03-18 00:30:00,
2013-03-17 19:35:00,30.4,15.2,30.00,ENE,67,0.0,6.3,53,0.00,,,0.00,WUHU21623XXSP,2013-03-18 00:35:00,
2013-03-17 19:40:00,30.4,15.2,30.00,ENE,67,4.7,5.4,53,0.00,,,0.00,WUHU21623XXSP,2013-03-18 00:40:00,
2013-03-17 19:45:00,30.2,15.1,30.01,ESE,112,3.6,5.4,53,0.00,,,0.00,WUHU21623XXSP,2013-03-18 00:45:00,
2013-03-17 19:50:00,30.2,15.1,30.00,ESE,112,0.0,6.5,53,0.00,,,0.00,WUHU21623XXSP,2013-03-18 00:50:00,
2013-03-17 19:55:00,30.0,14.9,30.00,NNE,22,6.0,6.5,53,0.00,,,0.00,WUHU21623XXSP,2013-03-18 00:55:00,
2013-03-17 20:00:00,30.0,15.3,30.00,East,90,6.3,6.3,54,0.00,,,0.00,WUHU21623XXSP,2013-03-18 01:00:00,
2013-03-17 20:05:00,29.8,15.2,29.99,East,90,2.0,6.3,54,0.00,,,0.00,WUHU21623XXSP,2013-03-18 01:05:00,
2013-03-17 20:10:00,29.8,15.2,30.00,ESE,112,0.9,5.6,54,0.00,,,0.00,WUHU21623XXSP,2013-03-18 01:10:00,
2013-03-17 20:15:00,29.8,15.2,29.99,ESE,112,0.4,5.6,54,0.00,,,0.00,WUHU21623XXSP,2013-03-18 01:15:00,
2013-03-17 20:20:00,29.8,15.6,29.99,SE,135,4.9,6.3,55,0.00,,,0.00,WUHU21623XXSP,2013-03-18 01:20:00,
2013-03-17 20:25:00,29.8,15.6,29.99,East,90,4.3,6.3,55,0.00,,,0.00,WUHU21623XXSP,2013-03-18 01:25:00,
2013-03-17 20:30:00,29.7,15.4,29.99,ENE,67,8.9,8.9,55,0.00,,,0.00,WUHU21623XXSP,2013-03-18 01:30:00,
2013-03-17 20:35:00,29.7,15.4,29.99,East,90,6.7,8.9,55,0.00,,,0.00,WUHU21623XXSP,2013-03-18 01:35:00,
2013-03-17 20:40:00,29.7,15.4,29.99,ENE,67,4.9,6.7,55,0.00,,,0.00,WUHU21623XXSP,2013-03-18 01:40:00,
2013-03-17 20:45:00,29.7,15.8,29.99,NE,45,6.5,6.5,56,0.00,,,0.00,WUHU21623XXSP,2013-03-18 01:45:00,
2013-03-17 20:50:00,29.7,15.8,29.99,NNE,22,11.9,11.9,56,0.00,,,0.00,WUHU21623XXSP,2013-03-18 01:50:00,
2013-03-17 20:55:00,29.7,15.8,29.99,ESE,112,2.2,11.9,56,0.00,,,0.00,WUHU21623XXSP,2013-03-18 01:55:00,
2013-03-17 21:00:00,29.7,15.8,29.99,East,90,2.5,7.8,56,0.00,,,0.00,WUHU21623XXSP,2013-03-18 02:00:00,
2013-03-17 21:05:00,29.7,16.2,29.98,East,90,1.1,5.6,57,0.00,,,0.00,WUHU21623XXSP,2013-03-18 02:05:00,
2013-03-17 21:10:00,29.7,16.2,29.98,East,90,2.7,2.9,57,0.00,,,0.00,WUHU21623XXSP,2013-03-18 02:10:00,
2013-03-17 21:15:00,29.7,16.2,29.98,East,90,0.7,4.5,57,0.00,,,0.00,WUHU21623XXSP,2013-03-18 02:15:00,
2013-03-17 21:20:00,29.7,16.6,29.98,SSE,157,0.4,4.5,58,0.00,,,0.00,WUHU21623XXSP,2013-03-18 02:20:00,
2013-03-17 21:25:00,29.7,16.6,29.98,ESE,112,6.5,6.5,58,0.00,,,0.00,WUHU21623XXSP,2013-03-18 02:25:00,
2013-03-17 21:30:00,29.5,16.9,29.98,East,90,6.0,6.5,59,0.00,,,0.00,WUHU21623XXSP,2013-03-18 02:30:00,
2013-03-17 21:35:00,29.7,17.1,29.98,SE,135,1.1,6.0,59,0.00,,,0.00,WUHU21623XXSP,2013-03-18 02:35:00,
2013-03-17 21:40:00,29.7,17.1,29.98,ESE,112,7.4,7.4,59,0.00,,,0.00,WUHU21623XXSP,2013-03-18 02:40:00,
2013-03-17 21:45:00,29.7,17.1,29.98,East,90,2.0,7.4,59,0.00,,,0.00,WUHU21623XXSP,2013-03-18 02:45:00,
2013-03-17 21:50:00,29.7,17.1,29.98,ESE,112,7.8,7.8,59,0.00,,,0.00,WUHU21623XXSP,2013-03-18 02:50:00,
2013-03-17 21:55:00,29.3,16.7,29.98,ESE,112,3.6,7.8,59,0.00,,,0.00,WUHU21623XXSP,2013-03-18 02:55:00,
2013-03-17 22:00:00,29.5,16.9,29.98,ENE,67,10.5,10.5,59,0.00,,,0.00,WUHU21623XXSP,2013-03-18 03:00:00,
2013-03-17 22:05:00,29.3,16.7,29.98,ENE,67,3.4,10.5,59,0.00,,,0.00,WUHU21623XXSP,2013-03-18 03:05:00,
2013-03-17 22:10:00,29.3,16.7,29.98,ESE,112,2.5,6.9,59,0.00,,,0.00,WUHU21623XXSP,2013-03-18 03:10:00,
2013-03-17 22:15:00,29.1,16.6,29.97,ESE,112,2.9,5.6,59,0.00,,,0.00,WUHU21623XXSP,2013-03-18 03:15:00,
2013-03-17 22:20:00,29.1,16.6,29.96,ENE,67,1.3,5.4,59,0.00,,,0.00,WUHU21623XXSP,2013-03-18 03:20:00,
2013-03-17 22:25:00,29.1,17.0,29.97,ESE,112,6.5,6.5,60,0.00,,,0.00,WUHU21623XXSP,2013-03-18 03:25:00,
2013-03-17 22:30:00,28.8,16.7,29.97,ESE,112,2.7,6.5,60,0.00,,,0.00,WUHU21623XXSP,2013-03-18 03:30:00,
2013-03-17 22:35:00,28.9,16.8,29.96,East,90,1.6,2.9,60,0.00,,,0.00,WUHU21623XXSP,2013-03-18 03:35:00,
2013-03-17 22:40:00,28.8,16.7,29.96,East,90,0.0,3.8,60,0.00,,,0.00,WUHU21623XXSP,2013-03-18 03:40:00,
2013-03-17 22:45:00,28.9,16.8,29.96,East,90,2.5,5.6,60,0.00,,,0.00,WUHU21623XXSP,2013-03-18 03:45:00,
2013-03-17 22:50:00,28.6,16.5,29.95,East,90,5.6,5.6,60,0.00,,,0.00,WUHU21623XXSP,2013-03-18 03:50:00,
2013-03-17 22:55:00,28.6,16.5,29.96,East,90,2.2,5.6,60,0.00,,,0.00,WUHU21623XXSP,2013-03-18 03:55:00,
2013-03-17 23:00:00,28.6,16.5,29.96,ESE,112,1.8,5.6,60,0.00,,,0.00,WUHU21623XXSP,2013-03-18 04:00:00,
2013-03-17 23:05:00,28.6,16.5,29.96,ENE,67,6.5,8.1,60,0.00,,,0.00,WUHU21623XXSP,2013-03-18 04:05:00,
2013-03-17 23:10:00,28.6,16.5,29.96,ESE,112,2.5,8.1,60,0.00,,,0.00,WUHU21623XXSP,2013-03-18 04:10:00,
2013-03-17 23:15:00,28.6,16.5,29.95,ESE,112,1.6,2.9,60,0.00,,,0.00,WUHU21623XXSP,2013-03-18 04:15:00,
2013-03-17 23:20:00,28.6,16.5,29.95,East,90,1.3,3.4,60,0.00,,,0.00,WUHU21623XXSP,2013-03-18 04:20:00,
2013-03-17 23:25:00,28.6,16.5,29.94,East,90,4.0,4.0,60,0.00,,,0.00,WUHU21623XXSP,2013-03-18 04:25:00,
2013-03-17 23:30:00,28.4,16.3,29.94,ESE,112,0.7,4.0,60,0.00,,,0.00,WUHU21623XXSP,2013-03-18 04:30:00,
2013-03-17 23:35:00,28.4,16.3,29.94,ESE,112,0.0,1.8,60,0.00,,,0.00,WUHU21623XXSP,2013-03-18 04:35:00,
2013-03-17 23:40:00,28.4,16.3,29.94,East,90,4.9,4.9,60,0.00,,,0.00,WUHU21623XXSP,2013-03-18 04:40:00,
2013-03-17 23:45:00,28.2,16.3,29.94,East,90,1.6,4.9,60,0.00,,,0.00,WUHU21623XXSP,2013-03-18 04:45:00,
2013-03-17 23:50:00,28.2,16.2,29.93,SE,135,2.5,2.5,60,0.00,,,0.00,WUHU21623XXSP,2013-03-18 04:50:00,
2013-03-17 23:55:00,28.2,16.2,29.93,ESE,112,0.4,2.5,60,0.00,,,0.00,WUHU21623XXSP,2013-03-18 04:55:00,